アンタナナリボ の空港の天気 - METARとTAF

イヴァト空港(アンタナナリボ) ( FMMI / TNR ) - マダガスカル アンタナナリボ
飛行場実況気象(Metar)
観測時間04/21 20:00 EAT (04/21 17:00 UTC)
風向・風速東 5m/s
視程10km以上
天気現象
少しの雲 雲底高度 610m
気温21℃
湿度78%
気圧1018hPa
METARFMMI 211700Z 10009KT 9999 FEW020 21/17 Q1018 NOSIG
過去の天気等 Google飛行場航空写真 Wunderground天気予報

過去48時間のMETAR

飛行場予報(TAF)
発表時間: -
21日20時 EAT ~ 21日23時 EAT に徐々に
少しの雲 雲底高度 300m
全天の8割程度の雲 雲底高度 610m
22日3時 EAT から 確率 30% で
視程4000m
天気現象もや
22日13時 EAT ~ 22日15時 EAT に徐々に
少しの積乱雲 雲底高度 520m
全天の4割程度の雲 雲底高度 610m

FMMI 211100Z 2112/2218 11008KT 9999 SCT020CB
BECMG 2117/2120 FEW010 BKN020
PROB30 2200/2204 4000 BR
BECMG 2210/2212 FEW017CB SCT020